createdAt,value
2019-04-25T00:02:05.028Z,89.77
2019-04-25T00:04:45.300Z,89.46
2019-04-25T00:07:15.289Z,88.95
2019-04-25T00:09:53.172Z,88.64
2019-04-25T00:12:38.049Z,88.15
2019-04-25T00:15:11.172Z,87.94
2019-04-25T00:17:43.335Z,89.43
2019-04-25T00:20:15.187Z,88.88
2019-04-25T00:23:02.012Z,89.98
2019-04-25T00:25:51.226Z,90.66
2019-04-25T00:28:21.746Z,91.16
2019-04-25T00:30:52.326Z,91.41
2019-04-25T00:33:23.073Z,91.68
2019-04-25T00:35:53.324Z,91.38
2019-04-25T00:38:23.299Z,92.37
2019-04-25T00:40:53.593Z,92.77
2019-04-25T00:43:23.722Z,92.27
2019-04-25T00:45:53.968Z,92.16
2019-04-25T00:48:24.557Z,92.37
2019-04-25T00:50:54.722Z,91.21
2019-04-25T00:53:25.184Z,90.77
2019-04-25T00:55:55.171Z,88.77
2019-04-25T00:58:43.067Z,87.91
2019-04-25T01:01:32.053Z,87.41
2019-04-25T01:04:02.447Z,87.59
2019-04-25T01:06:32.731Z,85.70
2019-04-25T01:09:03.445Z,86.22
2019-04-25T01:11:33.995Z,85.62
2019-04-25T01:14:03.948Z,86.09
2019-04-25T01:16:33.870Z,86.57
2019-04-25T01:19:03.871Z,86.36
2019-04-25T01:21:34.531Z,85.95
2019-04-25T01:24:04.544Z,86.33
2019-04-25T01:26:34.640Z,86.15
2019-04-25T01:29:05.974Z,84.64
2019-04-25T01:31:36.958Z,85.31
2019-04-25T01:34:09.939Z,84.05
2019-04-25T01:36:58.983Z,86.19
2019-04-25T01:39:47.543Z,87.09
2019-04-25T01:42:43.837Z,88.43
2019-04-25T01:45:14.847Z,88.51
2019-04-25T01:47:45.569Z,88.79
2019-04-25T01:50:15.799Z,90.49
2019-04-25T01:52:45.810Z,91.50
2019-04-25T01:55:16.047Z,91.60
2019-04-25T01:57:46.272Z,91.12
2019-04-25T02:00:19.172Z,92.00
2019-04-25T02:02:51.015Z,92.36
2019-04-25T02:05:21.110Z,92.11
2019-04-25T02:07:51.524Z,92.45
2019-04-25T02:10:21.483Z,92.73
2019-04-25T02:12:56.398Z,92.92
2019-04-25T02:15:30.070Z,93.65
2019-04-25T02:18:00.337Z,92.09
2019-04-25T02:20:30.445Z,92.54
2019-04-25T02:23:00.567Z,91.88
2019-04-25T02:25:31.095Z,91.73
2019-04-25T02:28:02.501Z,92.68
2019-04-25T02:30:35.322Z,92.78
2019-04-25T02:33:08.560Z,92.73
2019-04-25T02:35:36.327Z,92.52
2019-04-25T02:38:08.741Z,93.60
2019-04-25T02:40:37.945Z,93.39
2019-04-25T02:43:08.421Z,94.01
2019-04-25T02:45:57.097Z,94.68
2019-04-25T02:48:45.651Z,95.89
2019-04-25T02:51:40.558Z,96.34
2019-04-25T02:54:11.238Z,96.59
2019-04-25T02:56:41.206Z,96.20
2019-04-25T02:59:11.298Z,96.68
2019-04-25T03:01:44.322Z,96.85
2019-04-25T03:04:14.637Z,96.76
2019-04-25T03:06:45.472Z,96.06
2019-04-25T03:09:15.766Z,94.02
2019-04-25T03:11:47.659Z,93.90
2019-04-25T03:14:17.510Z,94.31
2019-04-25T03:16:47.760Z,94.41
2019-04-25T03:19:54.868Z,94.69
2019-04-25T03:22:27.404Z,92.86
2019-04-25T03:24:59.689Z,92.96
2019-04-25T03:27:29.884Z,92.76
2019-04-25T03:29:59.965Z,92.99
2019-04-25T03:32:29.907Z,93.69
2019-04-25T03:35:01.174Z,94.37
2019-04-25T03:37:31.056Z,94.76
2019-04-25T03:40:02.055Z,95.68
2019-04-25T03:42:33.900Z,97.10
2019-04-25T03:45:05.860Z,97.45
2019-04-25T03:47:35.961Z,97.20
2019-04-25T03:50:07.290Z,97.50
2019-04-25T03:52:38.096Z,98.89
2019-04-25T03:55:08.687Z,98.77
2019-04-25T03:57:39.603Z,98.61
2019-04-25T04:00:10.809Z,98.49
2019-04-25T04:02:40.782Z,99.12
2019-04-25T04:05:11.484Z,100.00
2019-04-25T04:07:41.436Z,100.00
2019-04-25T04:10:14.109Z,100.00
2019-04-25T04:12:44.328Z,100.00
2019-04-25T04:15:16.108Z,100.00
2019-04-25T04:17:55.338Z,100.00
2019-04-25T04:20:43.559Z,100.00
2019-04-25T04:23:19.158Z,100.00
2019-04-25T04:25:49.351Z,100.00
2019-04-25T04:28:19.309Z,100.00
2019-04-25T04:30:49.498Z,100.00
2019-04-25T04:33:29.617Z,100.00
2019-04-25T04:35:51.043Z,100.00
2019-04-25T04:38:21.128Z,100.00
2019-04-25T04:40:51.374Z,100.00
2019-04-25T04:43:21.288Z,100.00
2019-04-25T04:45:51.212Z,99.56
2019-04-25T04:48:21.142Z,99.07
2019-04-25T04:50:51.188Z,98.89
2019-04-25T04:53:21.102Z,98.71
2019-04-25T04:55:51.013Z,98.17
2019-04-25T04:58:20.967Z,97.69
2019-04-25T05:00:50.951Z,97.27
2019-04-25T05:03:27.988Z,92.45
2019-04-25T05:06:11.010Z,84.93
2019-04-25T05:08:54.749Z,78.37
2019-04-25T05:11:25.535Z,74.98
2019-04-25T05:13:55.497Z,72.46
2019-04-25T05:16:25.647Z,69.91
2019-04-25T05:18:55.626Z,66.27
2019-04-25T05:21:25.618Z,64.41
2019-04-25T05:23:55.523Z,61.91
2019-04-25T05:26:25.431Z,59.73
2019-04-25T05:28:55.317Z,55.86
2019-04-25T05:31:34.501Z,54.01
2019-04-25T05:34:04.422Z,53.21
2019-04-25T05:36:38.159Z,53.18
2019-04-25T05:39:12.194Z,55.31
2019-04-25T05:41:48.256Z,54.90
2019-04-25T05:44:18.731Z,53.04
2019-04-25T05:46:48.695Z,54.92
2019-04-25T05:49:19.280Z,57.31
2019-04-25T05:51:49.238Z,57.08
2019-04-25T05:54:19.157Z,55.24
2019-04-25T05:56:49.076Z,55.76
2019-04-25T05:59:19.484Z,54.15
2019-04-25T06:01:49.786Z,55.44
2019-04-25T06:04:19.734Z,54.66
2019-04-25T06:06:49.680Z,52.78
2019-04-25T06:09:38.491Z,53.24
2019-04-25T06:12:26.057Z,51.52
2019-04-25T06:14:55.973Z,51.20
2019-04-25T06:17:47.822Z,51.90
2019-04-25T06:20:20.162Z,52.04
2019-04-25T06:22:58.268Z,53.17
2019-04-25T06:25:32.911Z,52.10
2019-04-25T06:28:03.761Z,49.44
2019-04-25T06:30:35.220Z,47.41
2019-04-25T06:33:05.608Z,47.14
2019-04-25T06:35:35.995Z,47.16
2019-04-25T06:38:06.350Z,46.07
2019-04-25T06:40:36.438Z,45.03
2019-04-25T06:43:06.590Z,45.21
2019-04-25T06:45:55.470Z,46.38
2019-04-25T06:48:35.386Z,47.92
2019-04-25T06:51:05.545Z,45.84
2019-04-25T06:53:35.765Z,44.82
2019-04-25T06:56:06.608Z,46.59
2019-04-25T06:58:36.839Z,44.51
2019-04-25T07:01:06.885Z,43.35
2019-04-25T07:03:36.905Z,43.14
2019-04-25T07:06:07.535Z,43.76
2019-04-25T07:08:37.473Z,42.20
2019-04-25T07:11:07.497Z,41.71
2019-04-25T07:13:38.897Z,40.94
2019-04-25T07:16:08.842Z,43.00
2019-04-25T07:18:38.880Z,41.49
2019-04-25T07:21:08.939Z,39.87
2019-04-25T07:23:39.022Z,38.05
2019-04-25T07:26:15.935Z,35.94
2019-04-25T07:29:10.673Z,35.52
2019-04-25T07:31:54.425Z,34.57
2019-04-25T07:34:26.524Z,32.30
2019-04-25T07:36:57.535Z,31.49
2019-04-25T07:39:27.561Z,30.12
2019-04-25T07:41:58.384Z,32.38
2019-04-25T07:44:41.994Z,31.61
2019-04-25T07:47:00.257Z,31.62
2019-04-25T07:49:30.518Z,31.67
2019-04-25T07:52:00.481Z,34.01
2019-04-25T07:54:30.692Z,33.06
2019-04-25T07:57:00.594Z,31.64
2019-04-25T07:59:30.995Z,32.73
2019-04-25T08:02:00.961Z,33.82
2019-04-25T08:04:31.787Z,31.33
2019-04-25T08:07:04.109Z,31.96
2019-04-25T08:09:35.732Z,30.09
2019-04-25T08:12:06.220Z,31.44
2019-04-25T08:14:59.887Z,32.83
2019-04-25T08:17:49.062Z,30.55
2019-04-25T08:20:19.541Z,26.80
2019-04-25T08:22:56.551Z,27.28
2019-04-25T08:25:23.491Z,28.76
2019-04-25T08:27:53.580Z,28.10
2019-04-25T08:30:26.102Z,26.62
2019-04-25T08:32:56.196Z,29.25
2019-04-25T08:35:26.318Z,26.58
2019-04-25T08:37:56.299Z,26.04
2019-04-25T08:40:26.703Z,25.40
2019-04-25T08:42:56.711Z,27.35
2019-04-25T08:45:27.406Z,26.18
2019-04-25T08:47:59.148Z,25.55
2019-04-25T08:50:42.299Z,25.16
2019-04-25T08:53:13.689Z,23.03
2019-04-25T08:55:59.189Z,23.10
2019-04-25T08:58:46.521Z,22.25
2019-04-25T09:01:24.889Z,23.60
2019-04-25T09:04:13.211Z,24.25
2019-04-25T09:06:44.271Z,23.08
2019-04-25T09:09:14.235Z,24.82
2019-04-25T09:11:46.937Z,25.19
2019-04-25T09:14:16.056Z,23.91
2019-04-25T09:16:46.225Z,22.89
2019-04-25T09:19:16.111Z,23.00
2019-04-25T09:21:49.479Z,22.28
2019-04-25T09:24:17.810Z,21.47
2019-04-25T09:26:48.509Z,22.22
2019-04-25T09:29:19.866Z,22.09
2019-04-25T09:31:50.003Z,20.67
2019-04-25T09:34:20.066Z,22.32
2019-04-25T09:36:50.437Z,21.27
2019-04-25T09:39:35.612Z,21.89
2019-04-25T09:42:06.008Z,22.82
2019-04-25T09:44:46.708Z,22.70
2019-04-25T09:47:16.930Z,21.16
2019-04-25T09:49:48.349Z,22.19
2019-04-25T09:52:20.339Z,21.01
2019-04-25T09:54:59.874Z,20.63
2019-04-25T09:57:39.111Z,19.60
2019-04-25T10:00:19.331Z,20.25
2019-04-25T10:02:49.371Z,20.99
2019-04-25T10:05:19.533Z,21.42
2019-04-25T10:07:49.527Z,23.80
2019-04-25T10:10:19.651Z,22.67
2019-04-25T10:12:49.966Z,20.63
2019-04-25T10:15:30.619Z,19.12
2019-04-25T10:18:01.269Z,19.24
2019-04-25T10:20:31.243Z,21.74
2019-04-25T10:23:01.272Z,21.46
2019-04-25T10:25:31.458Z,20.60
2019-04-25T10:28:01.860Z,20.66
2019-04-25T10:30:31.888Z,19.46
2019-04-25T10:33:05.665Z,19.71
2019-04-25T10:35:46.712Z,18.50
2019-04-25T10:38:08.023Z,17.83
2019-04-25T10:40:38.491Z,18.44
2019-04-25T10:43:09.406Z,19.66
2019-04-25T10:45:39.790Z,18.69
2019-04-25T10:48:10.671Z,17.96
2019-04-25T10:50:41.738Z,19.23
2019-04-25T10:53:11.860Z,19.94
2019-04-25T10:55:41.826Z,19.31
2019-04-25T10:58:11.995Z,19.74
2019-04-25T11:00:46.104Z,19.54
2019-04-25T11:03:31.336Z,18.07
2019-04-25T11:06:01.253Z,18.17
2019-04-25T11:08:31.495Z,18.31
2019-04-25T11:11:01.592Z,18.61
2019-04-25T11:13:33.932Z,17.84
2019-04-25T11:16:04.690Z,17.38
2019-04-25T11:18:34.840Z,18.13
2019-04-25T11:21:06.078Z,15.12
2019-04-25T11:23:36.212Z,15.01
2019-04-25T11:26:06.518Z,16.92
2019-04-25T11:28:36.977Z,16.85
2019-04-25T11:31:08.892Z,15.99
2019-04-25T11:33:39.240Z,15.27
2019-04-25T11:36:09.195Z,13.12
2019-04-25T11:38:50.363Z,14.16
2019-04-25T11:41:21.291Z,16.02
2019-04-25T11:43:51.308Z,17.67
2019-04-25T11:46:21.282Z,17.01
2019-04-25T11:48:52.571Z,15.29
2019-04-25T11:51:24.055Z,14.76
2019-04-25T11:53:55.477Z,14.33
2019-04-25T11:56:26.429Z,13.64
2019-04-25T11:58:56.645Z,14.13
2019-04-25T12:01:26.914Z,14.11
2019-04-25T12:03:57.706Z,15.78
2019-04-25T12:06:27.767Z,15.88
2019-04-25T12:08:57.833Z,15.21
2019-04-25T12:11:27.817Z,14.32
2019-04-25T12:13:57.972Z,15.58
2019-04-25T12:16:28.378Z,14.29
2019-04-25T12:18:58.360Z,13.55
2019-04-25T12:21:28.427Z,14.39
2019-04-25T12:24:01.713Z,14.26
2019-04-25T12:26:30.714Z,15.57
2019-04-25T12:29:00.771Z,15.79
2019-04-25T12:31:30.817Z,15.19
2019-04-25T12:34:00.795Z,14.01
2019-04-25T12:36:30.914Z,13.53
2019-04-25T12:39:01.137Z,12.53
2019-04-25T12:41:31.071Z,13.25
2019-04-25T12:44:15.438Z,13.71
2019-04-25T12:46:48.426Z,13.16
2019-04-25T12:49:18.442Z,12.99
2019-04-25T12:51:48.419Z,12.68
2019-04-25T12:54:18.565Z,13.45
2019-04-25T12:56:49.264Z,13.27
2019-04-25T12:59:19.296Z,13.83
2019-04-25T13:01:49.618Z,14.25
2019-04-25T13:04:19.540Z,14.46
2019-04-25T13:06:50.474Z,15.26
2019-04-25T13:09:20.537Z,14.88
2019-04-25T13:11:50.459Z,14.68
2019-04-25T13:14:20.986Z,14.22
2019-04-25T13:16:50.992Z,14.63
2019-04-25T13:19:24.135Z,14.73
2019-04-25T13:21:54.374Z,14.62
2019-04-25T13:24:24.717Z,14.47
2019-04-25T13:27:01.095Z,14.17
2019-04-25T13:29:53.220Z,14.06
2019-04-25T13:32:41.032Z,14.40
2019-04-25T13:35:18.914Z,13.55
2019-04-25T13:37:49.173Z,13.37
2019-04-25T13:40:19.288Z,14.60
2019-04-25T13:42:49.946Z,13.39
2019-04-25T13:45:19.978Z,15.51
2019-04-25T13:47:50.086Z,15.56
2019-04-25T13:50:21.582Z,16.04
2019-04-25T13:52:53.374Z,15.94
2019-04-25T13:55:24.031Z,15.90
2019-04-25T13:57:55.028Z,16.43
2019-04-25T14:00:26.167Z,15.63
2019-04-25T14:02:56.182Z,15.72
2019-04-25T14:05:26.529Z,15.96
2019-04-25T14:07:56.622Z,15.50
2019-04-25T14:10:26.867Z,15.62
2019-04-25T14:12:57.073Z,14.80
2019-04-25T14:15:28.479Z,15.63
2019-04-25T14:18:24.032Z,14.71
2019-04-25T14:20:58.533Z,13.63
2019-04-25T14:23:29.387Z,13.21
2019-04-25T14:25:59.322Z,12.50
2019-04-25T14:28:31.529Z,11.96
2019-04-25T14:31:02.117Z,12.10
2019-04-25T14:33:33.210Z,11.88
2019-04-25T14:36:04.184Z,12.39
2019-04-25T14:38:35.399Z,12.84
2019-04-25T14:41:06.064Z,12.49
2019-04-25T14:43:37.843Z,12.82
2019-04-25T14:46:08.122Z,12.17
2019-04-25T14:48:38.104Z,12.01
2019-04-25T14:51:10.741Z,12.33
2019-04-25T14:53:40.386Z,13.04
2019-04-25T14:56:21.660Z,12.64
2019-04-25T14:58:52.405Z,12.64
2019-04-25T15:01:24.133Z,13.30
2019-04-25T15:03:54.368Z,14.11
2019-04-25T15:06:25.878Z,14.41
2019-04-25T15:08:55.942Z,14.61
2019-04-25T15:11:26.946Z,15.64
2019-04-25T15:13:57.601Z,14.95
2019-04-25T15:16:27.606Z,14.99
2019-04-25T15:18:57.501Z,14.89
2019-04-25T15:21:27.653Z,14.13
2019-04-25T15:24:00.348Z,13.84
2019-04-25T15:26:29.961Z,14.06
2019-04-25T15:29:00.475Z,14.28
2019-04-25T15:31:30.498Z,13.99
2019-04-25T15:34:02.384Z,13.85
2019-04-25T15:36:50.082Z,14.43
2019-04-25T15:39:41.854Z,13.88
2019-04-25T15:42:43.023Z,14.62
2019-04-25T15:45:50.755Z,15.86
2019-04-25T15:48:20.887Z,15.19
2019-04-25T15:50:51.115Z,15.79
2019-04-25T15:53:21.158Z,16.92
2019-04-25T15:55:52.025Z,17.25
2019-04-25T15:58:22.139Z,17.75
2019-04-25T16:00:52.149Z,18.46
2019-04-25T16:03:22.134Z,19.36
2019-04-25T16:05:52.145Z,19.55
2019-04-25T16:08:22.180Z,19.44
2019-04-25T16:10:52.142Z,19.45
2019-04-25T16:13:22.282Z,19.44
2019-04-25T16:15:52.244Z,19.70
2019-04-25T16:18:24.296Z,19.86
2019-04-25T16:20:54.184Z,20.07
2019-04-25T16:23:24.318Z,20.14
2019-04-25T16:25:55.196Z,20.28
2019-04-25T16:28:26.552Z,20.19
2019-04-25T16:30:57.327Z,20.15
2019-04-25T16:33:29.001Z,20.23
2019-04-25T16:35:59.003Z,19.85
2019-04-25T16:38:29.816Z,20.16
2019-04-25T16:41:00.963Z,20.43
2019-04-25T16:43:33.151Z,20.46
2019-04-25T16:46:03.262Z,20.56
2019-04-25T16:48:33.708Z,20.34
2019-04-25T16:51:03.685Z,20.60
2019-04-25T16:53:34.215Z,20.51
2019-04-25T16:56:04.684Z,20.90
2019-04-25T16:58:34.728Z,21.21
2019-04-25T17:01:10.661Z,22.04
2019-04-25T17:03:41.485Z,22.13
2019-04-25T17:06:12.286Z,22.31
2019-04-25T17:08:42.497Z,23.21
2019-04-25T17:11:13.799Z,22.17
2019-04-25T17:13:50.134Z,23.18
2019-04-25T17:16:36.834Z,22.78
2019-04-25T17:19:10.010Z,22.88
2019-04-25T17:21:40.246Z,23.32
2019-04-25T17:24:10.447Z,23.53
2019-04-25T17:26:40.341Z,23.96
2019-04-25T17:29:14.692Z,24.08
2019-04-25T17:32:12.522Z,25.33
2019-04-25T17:34:56.127Z,24.87
2019-04-25T17:37:29.468Z,25.29
2019-04-25T17:40:02.606Z,25.41
2019-04-25T17:42:33.556Z,26.14
2019-04-25T17:45:05.693Z,25.09
2019-04-25T17:47:36.490Z,25.49
2019-04-25T17:50:06.866Z,25.88
2019-04-25T17:52:36.987Z,25.95
2019-04-25T17:55:07.686Z,25.91
2019-04-25T17:57:38.350Z,27.22
2019-04-25T18:00:12.198Z,26.80
2019-04-25T18:02:42.276Z,27.06
2019-04-25T18:05:12.251Z,27.60
2019-04-25T18:07:42.243Z,28.31
2019-04-25T18:10:13.131Z,29.94
2019-04-25T18:12:43.079Z,29.49
2019-04-25T18:15:24.319Z,30.95
2019-04-25T18:17:53.952Z,30.18
2019-04-25T18:20:25.561Z,29.60
2019-04-25T18:23:09.715Z,31.11
2019-04-25T18:25:57.647Z,31.67
2019-04-25T18:28:35.525Z,30.67
2019-04-25T18:31:06.892Z,31.57
2019-04-25T18:33:37.296Z,31.03
2019-04-25T18:36:27.184Z,32.51
2019-04-25T18:39:03.921Z,33.75
2019-04-25T18:41:45.949Z,33.21
2019-04-25T18:44:16.161Z,40.96
2019-04-25T18:46:47.423Z,46.99
2019-04-25T18:49:17.465Z,52.32
2019-04-25T18:51:56.411Z,54.88
2019-04-25T18:54:43.229Z,56.13
2019-04-25T18:57:19.654Z,56.38
2019-04-25T19:00:01.867Z,56.81
2019-04-25T19:02:50.325Z,55.82
2019-04-25T19:05:46.128Z,55.56
2019-04-25T19:08:16.064Z,56.36
2019-04-25T19:10:47.083Z,56.88
2019-04-25T19:13:17.113Z,57.56
2019-04-25T19:15:47.301Z,58.11
2019-04-25T19:18:17.537Z,58.61
2019-04-25T19:20:48.088Z,59.37
2019-04-25T19:23:18.065Z,59.80
2019-04-25T19:25:48.215Z,60.56
2019-04-25T19:28:18.291Z,61.35
2019-04-25T19:30:48.662Z,62.13
2019-04-25T19:33:19.002Z,62.73
2019-04-25T19:35:49.111Z,63.16
2019-04-25T19:38:19.144Z,63.90
2019-04-25T19:40:54.935Z,64.64
2019-04-25T19:43:48.585Z,65.54
2019-04-25T19:46:18.666Z,66.52
2019-04-25T19:48:58.120Z,67.79
2019-04-25T19:51:28.052Z,68.54
2019-04-25T19:53:59.355Z,69.13
2019-04-25T19:56:29.388Z,69.97
2019-04-25T19:58:59.808Z,71.01
2019-04-25T20:01:30.177Z,71.67
2019-04-25T20:04:15.181Z,72.42
2019-04-25T20:07:02.452Z,73.09
2019-04-25T20:10:01.915Z,73.93
2019-04-25T20:12:38.741Z,74.10
2019-04-25T20:15:09.445Z,74.89
2019-04-25T20:17:39.547Z,75.40
2019-04-25T20:20:11.779Z,74.23
2019-04-25T20:22:41.954Z,75.33
2019-04-25T20:25:12.762Z,74.42
2019-04-25T20:27:42.998Z,74.65
2019-04-25T20:30:13.849Z,75.62
2019-04-25T20:32:44.724Z,76.70
2019-04-25T20:35:15.941Z,74.62
2019-04-25T20:37:47.436Z,75.09
2019-04-25T20:40:17.492Z,74.33
2019-04-25T20:42:48.069Z,74.26
2019-04-25T20:45:18.138Z,72.39
2019-04-25T20:47:48.289Z,72.05
2019-04-25T20:50:21.508Z,72.05
2019-04-25T20:52:51.492Z,72.54
2019-04-25T20:55:21.694Z,72.63
2019-04-25T20:57:51.746Z,72.25
2019-04-25T21:00:45.422Z,71.45
2019-04-25T21:03:15.411Z,71.51
2019-04-25T21:05:47.031Z,71.44
2019-04-25T21:08:17.022Z,71.98
2019-04-25T21:10:47.080Z,72.65
2019-04-25T21:13:21.848Z,73.28
2019-04-25T21:16:01.396Z,73.53
2019-04-25T21:18:38.094Z,73.34
2019-04-25T21:21:07.976Z,73.55
2019-04-25T21:23:37.957Z,73.77
2019-04-25T21:26:08.842Z,74.39
2019-04-25T21:28:39.102Z,74.99
2019-04-25T21:31:09.061Z,75.21
2019-04-25T21:33:39.196Z,75.68
2019-04-25T21:36:09.092Z,76.45
2019-04-25T21:38:39.200Z,76.76
2019-04-25T21:41:41.002Z,77.14
2019-04-25T21:44:11.126Z,77.27
2019-04-25T21:46:41.470Z,77.21
2019-04-25T21:49:11.745Z,78.19
2019-04-25T21:51:41.622Z,79.29
2019-04-25T21:54:11.626Z,80.20
2019-04-25T21:56:41.685Z,81.06
2019-04-25T21:59:11.927Z,82.05
2019-04-25T22:01:43.214Z,80.87
2019-04-25T22:04:14.567Z,80.95
2019-04-25T22:06:44.789Z,82.00
2019-04-25T22:09:17.371Z,83.21
2019-04-25T22:11:47.697Z,83.64
2019-04-25T22:14:18.285Z,84.20
2019-04-25T22:16:48.555Z,85.25
2019-04-25T22:19:18.979Z,84.99
2019-04-25T22:21:49.245Z,84.08
2019-04-25T22:24:19.377Z,83.96
2019-04-25T22:26:51.223Z,83.83
2019-04-25T22:29:22.428Z,83.80
2019-04-25T22:32:08.137Z,84.55
2019-04-25T22:35:03.802Z,84.23
2019-04-25T22:37:33.684Z,84.04
2019-04-25T22:40:04.169Z,84.29
2019-04-25T22:42:34.416Z,84.78
2019-04-25T22:45:05.869Z,84.59
2019-04-25T22:47:35.847Z,85.22
2019-04-25T22:50:06.523Z,84.85
2019-04-25T22:52:37.032Z,85.24
2019-04-25T22:55:07.320Z,85.25
2019-04-25T22:57:38.200Z,84.97
2019-04-25T23:00:12.205Z,84.77
2019-04-25T23:02:48.265Z,84.72
2019-04-25T23:05:24.717Z,85.02
2019-04-25T23:07:55.344Z,85.55
2019-04-25T23:10:25.674Z,85.03
2019-04-25T23:12:55.702Z,85.22
2019-04-25T23:15:26.216Z,85.14
2019-04-25T23:17:56.348Z,85.47
2019-04-25T23:20:26.340Z,86.06
2019-04-25T23:22:56.280Z,86.37
2019-04-25T23:25:31.885Z,87.87
2019-04-25T23:28:20.714Z,89.04
2019-04-25T23:31:08.855Z,90.68
2019-04-25T23:33:38.829Z,91.32
2019-04-25T23:36:09.171Z,93.00
2019-04-25T23:38:39.124Z,92.33
2019-04-25T23:41:09.462Z,92.88
2019-04-25T23:43:39.379Z,92.68
2019-04-25T23:46:10.101Z,92.59
2019-04-25T23:48:40.774Z,92.34
2019-04-25T23:51:11.343Z,92.85
2019-04-25T23:53:41.474Z,92.84
2019-04-25T23:56:11.506Z,92.76
2019-04-25T23:58:41.633Z,93.28
